Time;durP1;ratioP1;P1;durP2;ratioP2;P2;SDS_P1;SDS_P2;PMS_P1;PMS_P2;Temp;Humidity;BMP_temperature;BMP_pressure;BME280_temperature;BME280_humidity;BME280_pressure;Samples;Min_cycle;Max_cycle;Signal;HPM_P1;HPM_P2
2024/01/27 00:00:03;;;;;;;8.32;2.78;;;;;;;;;;513735;28;1513;-75
2024/01/27 00:00:18;;;;;;;8.60;2.70;;;;;;;;;;513408;28;1394;-76
2024/01/27 00:00:34;;;;;;;10.88;2.92;;;;;;;;;;513876;28;1426;-76
2024/01/27 00:00:51;;;;;;;11.10;3.10;;;;;;;;;;513860;28;1354;-76
2024/01/27 00:01:06;;;;;;;9.55;3.05;;;;;;;;;;512250;28;1180;-75
2024/01/27 00:01:22;;;;;;;8.90;2.85;;;;;;;;;;510569;28;1886;-75
2024/01/27 00:01:37;;;;;;;7.00;2.60;;;;;;;;;;512051;28;1356;-76
2024/01/27 00:01:52;;;;;;;6.73;2.50;;;;;;;;;;513468;28;1380;-76
2024/01/27 00:02:08;;;;;;;9.02;2.90;;;;;;;;;;512147;28;1363;-76
2024/01/27 00:02:23;;;;;;;8.90;2.97;;;;;;;;;;511018;28;1815;-76
2024/01/27 00:02:38;;;;;;;6.87;2.53;;;;;;;;;;512071;28;1461;-76
2024/01/27 00:02:53;;;;;;;8.65;2.75;;;;;;;;;;511858;28;1863;-76
2024/01/27 00:03:09;;;;;;;10.50;3.10;;;;;;;;;;512153;28;1256;-75
2024/01/27 00:03:25;;;;;;;8.80;2.83;;;;;;;;;;511647;28;1549;-76
2024/01/27 00:03:40;;;;;;;8.65;2.80;;;;;;;;;;512071;28;1403;-75
2024/01/27 00:03:56;;;;;;;8.80;2.70;;;;;;;;;;511996;28;1318;-75
2024/01/27 00:04:11;;;;;;;7.73;2.60;;;;;;;;;;512311;28;1371;-76
2024/01/27 00:04:26;;;;;;;7.93;2.70;;;;;;;;;;509701;28;1866;-76
2024/01/27 00:04:42;;;;;;;8.80;2.80;;;;;;;;;;511073;28;1637;-75
2024/01/27 00:04:57;;;;;;;9.53;2.90;;;;;;;;;;512340;28;1494;-76
2024/01/27 00:05:12;;;;;;;9.77;2.80;;;;;;;;;;513910;28;1643;-76
2024/01/27 00:05:28;;;;;;;9.80;2.90;;;;;;;;;;511665;28;1399;-76
2024/01/27 00:05:43;;;;;;;8.57;2.73;;;;;;;;;;511987;28;1498;-76
2024/01/27 00:05:59;;;;;;;6.70;2.50;;;;;;;;;;512246;28;1914;-76
2024/01/27 00:06:14;;;;;;;7.33;2.50;;;;;;;;;;512457;28;1929;-76
2024/01/27 00:06:29;;;;;;;8.23;2.77;;;;;;;;;;512569;28;1328;-76
2024/01/27 00:06:45;;;;;;;9.00;2.97;;;;;;;;;;513858;28;1592;-76
2024/01/27 00:07:00;;;;;;;8.10;2.63;;;;;;;;;;514806;28;1616;-75
2024/01/27 00:07:16;;;;;;;7.55;2.58;;;;;;;;;;515921;28;1651;-76
2024/01/27 00:07:31;;;;;;;8.37;2.60;;;;;;;;;;518032;28;1519;-75
2024/01/27 00:07:46;;;;;;;9.73;3.00;;;;;;;;;;518573;28;1218;-76
2024/01/27 00:08:02;;;;;;;8.60;2.80;;;;;;;;;;517129;28;1553;-76
2024/01/27 00:08:18;;;;;;;7.65;2.40;;;;;;;;;;516538;28;1386;-76
2024/01/27 00:08:33;;;;;;;9.83;2.57;;;;;;;;;;516452;28;1456;-76
2024/01/27 00:08:48;;;;;;;9.68;2.75;;;;;;;;;;516160;28;1661;-75
2024/01/27 00:09:05;;;;;;;8.73;2.67;;;;;;;;;;515997;28;1405;-75
2024/01/27 00:09:22;;;;;;;8.52;2.45;;;;;;;;;;514468;28;1614;-76
2024/01/27 00:09:37;;;;;;;8.48;2.50;;;;;;;;;;513433;28;1497;-76
2024/01/27 00:09:58;;;;;;;8.10;2.40;;;;;;;;;;514400;28;1244;-76
2024/01/27 00:10:14;;;;;;;6.85;2.35;;;;;;;;;;515767;28;1556;-76
2024/01/27 00:10:31;;;;;;;8.00;2.55;;;;;;;;;;516815;28;1618;-76
2024/01/27 00:10:46;;;;;;;7.97;2.40;;;;;;;;;;512509;28;1248;-76
2024/01/27 00:11:01;;;;;;;8.00;2.40;;;;;;;;;;510704;28;1841;-76
2024/01/27 00:11:16;;;;;;;7.40;2.43;;;;;;;;;;511677;28;1474;-76
2024/01/27 00:11:32;;;;;;;7.90;2.60;;;;;;;;;;512032;28;1494;-76
2024/01/27 00:11:47;;;;;;;9.00;2.70;;;;;;;;;;511896;28;1304;-76
2024/01/27 00:12:03;;;;;;;8.27;2.43;;;;;;;;;;512238;28;1486;-75
2024/01/27 00:12:18;;;;;;;8.77;2.33;;;;;;;;;;512804;28;1485;-76
2024/01/27 00:12:34;;;;;;;8.37;2.40;;;;;;;;;;512331;28;1577;-76
2024/01/27 00:12:49;;;;;;;8.60;2.60;;;;;;;;;;512524;28;1599;-75
2024/01/27 00:13:04;;;;;;;8.73;2.50;;;;;;;;;;511930;28;1517;-76
2024/01/27 00:13:20;;;;;;;7.07;2.30;;;;;;;;;;511302;28;1480;-75
2024/01/27 00:13:35;;;;;;;6.50;2.28;;;;;;;;;;510418;28;1603;-75
2024/01/27 00:13:51;;;;;;;7.20;2.43;;;;;;;;;;511953;28;1372;-76
2024/01/27 00:14:06;;;;;;;7.88;2.58;;;;;;;;;;512670;28;1241;-75
2024/01/27 00:14:21;;;;;;;9.17;2.60;;;;;;;;;;514099;28;1556;-76
2024/01/27 00:14:38;;;;;;;8.83;2.60;;;;;;;;;;515180;28;1218;-75
2024/01/27 00:14:54;;;;;;;8.20;2.47;;;;;;;;;;511633;28;1232;-76
2024/01/27 00:15:09;;;;;;;10.68;2.42;;;;;;;;;;512164;28;1261;-76
2024/01/27 00:15:24;;;;;;;11.20;2.70;;;;;;;;;;512178;28;1562;-76
2024/01/27 00:15:40;;;;;;;9.30;2.60;;;;;;;;;;512836;28;1652;-76
2024/01/27 00:15:55;;;;;;;9.35;2.45;;;;;;;;;;512888;28;1538;-76
2024/01/27 00:16:10;;;;;;;9.73;2.50;;;;;;;;;;513126;28;1565;-76
2024/01/27 00:16:26;;;;;;;8.70;2.50;;;;;;;;;;514446;28;1190;-77
2024/01/27 00:16:41;;;;;;;6.97;2.37;;;;;;;;;;514286;28;1525;-76
2024/01/27 00:16:56;;;;;;;6.63;2.30;;;;;;;;;;516102;28;1373;-76
2024/01/27 00:17:11;;;;;;;7.03;2.30;;;;;;;;;;516036;28;1655;-76
2024/01/27 00:17:27;;;;;;;6.72;2.13;;;;;;;;;;515629;28;1539;-76
2024/01/27 00:17:43;;;;;;;7.05;2.17;;;;;;;;;;516374;28;1568;-75
2024/01/27 00:17:58;;;;;;;7.30;2.27;;;;;;;;;;515960;28;1784;-76
2024/01/27 00:18:15;;;;;;;7.10;2.30;;;;;;;;;;516216;28;1602;-76
2024/01/27 00:18:30;;;;;;;8.23;2.42;;;;;;;;;;516635;28;1559;-76
2024/01/27 00:18:46;;;;;;;9.80;2.78;;;;;;;;;;515745;28;1336;-75
2024/01/27 00:19:01;;;;;;;9.27;2.80;;;;;;;;;;514299;28;1504;-76
2024/01/27 00:19:16;;;;;;;8.33;2.63;;;;;;;;;;516666;28;1294;-76
2024/01/27 00:19:31;;;;;;;9.07;2.55;;;;;;;;;;518022;28;1507;-76
2024/01/27 00:19:47;;;;;;;8.60;2.43;;;;;;;;;;518381;28;1312;-76
2024/01/27 00:20:02;;;;;;;8.40;2.67;;;;;;;;;;518073;28;1440;-76
2024/01/27 00:20:18;;;;;;;9.13;2.80;;;;;;;;;;516584;28;1440;-75
2024/01/27 00:20:33;;;;;;;10.13;2.63;;;;;;;;;;516239;28;1683;-76
2024/01/27 00:20:48;;;;;;;9.17;2.70;;;;;;;;;;514115;28;1414;-76
2024/01/27 00:21:05;;;;;;;9.63;2.90;;;;;;;;;;514459;28;1520;-76
2024/01/27 00:21:21;;;;;;;9.43;2.65;;;;;;;;;;514130;28;1560;-76
2024/01/27 00:21:37;;;;;;;7.50;2.30;;;;;;;;;;514221;28;1446;-75
2024/01/27 00:21:53;;;;;;;6.43;2.20;;;;;;;;;;513836;28;1255;-75
2024/01/27 00:22:08;;;;;;;7.38;2.20;;;;;;;;;;514840;28;1552;-76
2024/01/27 00:22:24;;;;;;;7.37;2.30;;;;;;;;;;514720;28;1624;-76
2024/01/27 00:22:39;;;;;;;7.33;2.60;;;;;;;;;;517410;28;1476;-76
2024/01/27 00:22:55;;;;;;;7.35;2.40;;;;;;;;;;518458;28;1456;-76
2024/01/27 00:23:11;;;;;;;5.87;2.03;;;;;;;;;;518667;28;1558;-76
2024/01/27 00:23:27;;;;;;;7.13;2.53;;;;;;;;;;515345;28;1477;-76
2024/01/27 00:23:42;;;;;;;8.77;2.72;;;;;;;;;;516252;28;1527;-76
2024/01/27 00:24:00;;;;;;;7.97;2.40;;;;;;;;;;512536;28;1514;-76
2024/01/27 00:24:16;;;;;;;8.93;2.60;;;;;;;;;;511867;28;1370;-76
2024/01/27 00:24:31;;;;;;;8.55;2.50;;;;;;;;;;511102;28;1689;-76
2024/01/27 00:24:47;;;;;;;8.13;2.23;;;;;;;;;;512581;28;1296;-76
2024/01/27 00:25:02;;;;;;;9.00;2.47;;;;;;;;;;512248;28;1158;-75
2024/01/27 00:25:18;;;;;;;8.13;2.60;;;;;;;;;;512688;28;1160;-76
2024/01/27 00:25:33;;;;;;;9.20;2.67;;;;;;;;;;513546;28;1341;-76
2024/01/27 00:25:48;;;;;;;9.20;2.80;;;;;;;;;;513760;28;1303;-76
2024/01/27 00:26:04;;;;;;;7.80;2.47;;;;;;;;;;516026;28;1912;-75
2024/01/27 00:26:19;;;;;;;7.47;2.20;;;;;;;;;;516460;28;1248;-76
2024/01/27 00:26:34;;;;;;;7.53;2.33;;;;;;;;;;516234;28;1313;-76
2024/01/27 00:26:50;;;;;;;7.27;2.30;;;;;;;;;;513905;28;1306;-76
2024/01/27 00:27:05;;;;;;;7.50;2.30;;;;;;;;;;512195;28;1178;-75
2024/01/27 00:27:20;;;;;;;7.77;2.40;;;;;;;;;;508730;28;1808;-75
2024/01/27 00:27:36;;;;;;;6.67;2.30;;;;;;;;;;512259;28;1280;-76
2024/01/27 00:27:51;;;;;;;5.50;2.20;;;;;;;;;;510613;28;1264;-76
2024/01/27 00:28:06;;;;;;;6.70;2.30;;;;;;;;;;513483;28;1411;-76
2024/01/27 00:28:22;;;;;;;8.23;2.50;;;;;;;;;;511671;28;1533;-76
2024/01/27 00:28:37;;;;;;;7.67;2.47;;;;;;;;;;510437;28;1147;-76
2024/01/27 00:28:52;;;;;;;7.50;2.47;;;;;;;;;;511597;28;1283;-76
2024/01/27 00:29:07;;;;;;;7.63;2.47;;;;;;;;;;514442;28;1254;-76
2024/01/27 00:29:23;;;;;;;6.97;2.40;;;;;;;;;;513493;28;1177;-76
2024/01/27 00:29:38;;;;;;;7.77;2.40;;;;;;;;;;514477;28;1189;-76
2024/01/27 00:29:53;;;;;;;8.30;2.40;;;;;;;;;;513743;28;1176;-75
2024/01/27 00:30:11;;;;;;;8.03;2.63;;;;;;;;;;510734;28;1237;-76
2024/01/27 00:30:26;;;;;;;8.35;2.80;;;;;;;;;;510498;28;976;-76
2024/01/27 00:30:41;;;;;;;8.73;2.70;;;;;;;;;;512061;28;1203;-76
2024/01/27 00:30:57;;;;;;;8.98;2.53;;;;;;;;;;512418;28;1240;-76
2024/01/27 00:31:13;;;;;;;11.23;2.70;;;;;;;;;;512359;28;1208;-75
2024/01/27 00:31:28;;;;;;;9.77;2.47;;;;;;;;;;513015;28;1484;-76
2024/01/27 00:31:43;;;;;;;5.93;2.00;;;;;;;;;;514240;28;1386;-76
2024/01/27 00:31:58;;;;;;;5.77;2.13;;;;;;;;;;514353;28;1802;-76
2024/01/27 00:32:14;;;;;;;7.45;2.40;;;;;;;;;;515721;28;1549;-76
2024/01/27 00:32:30;;;;;;;7.97;2.40;;;;;;;;;;515379;28;1171;-76
2024/01/27 00:32:45;;;;;;;7.15;2.30;;;;;;;;;;512808;28;1140;-76
2024/01/27 00:33:01;;;;;;;9.90;2.55;;;;;;;;;;512943;28;1034;-76
2024/01/27 00:33:16;;;;;;;9.50;2.47;;;;;;;;;;514555;28;1368;-76
2024/01/27 00:33:31;;;;;;;7.10;2.10;;;;;;;;;;513348;28;1157;-76
2024/01/27 00:33:46;;;;;;;7.50;2.23;;;;;;;;;;512556;28;1113;-76
2024/01/27 00:34:02;;;;;;;6.10;2.15;;;;;;;;;;513514;28;1271;-76
2024/01/27 00:34:17;;;;;;;6.30;2.17;;;;;;;;;;515024;28;1208;-76
2024/01/27 00:34:33;;;;;;;7.63;2.33;;;;;;;;;;515125;28;1044;-76
2024/01/27 00:34:48;;;;;;;8.40;2.47;;;;;;;;;;516878;28;1236;-76
2024/01/27 00:35:03;;;;;;;9.60;2.50;;;;;;;;;;514775;28;1179;-76
2024/01/27 00:35:19;;;;;;;9.45;2.30;;;;;;;;;;514949;28;970;-76
2024/01/27 00:35:34;;;;;;;7.67;2.20;;;;;;;;;;514692;28;1235;-76
2024/01/27 00:35:50;;;;;;;7.35;2.10;;;;;;;;;;514548;28;1149;-76
2024/01/27 00:36:05;;;;;;;7.43;2.20;;;;;;;;;;513048;28;1400;-76
2024/01/27 00:36:20;;;;;;;8.83;2.47;;;;;;;;;;514814;28;1072;-75
2024/01/27 00:36:39;;;;;;;7.88;2.33;;;;;;;;;;514756;28;1509;-76
2024/01/27 00:36:54;;;;;;;6.90;2.17;;;;;;;;;;514968;28;1229;-75
2024/01/27 00:37:09;;;;;;;8.80;2.50;;;;;;;;;;517069;28;910;-76
2024/01/27 00:37:25;;;;;;;9.05;2.65;;;;;;;;;;516513;28;1192;-76
2024/01/27 00:37:41;;;;;;;7.78;2.40;;;;;;;;;;515758;28;1339;-76
2024/01/27 00:37:56;;;;;;;9.37;2.60;;;;;;;;;;517486;28;1275;-76
2024/01/27 00:38:12;;;;;;;9.60;2.65;;;;;;;;;;518765;28;1084;-77
2024/01/27 00:38:27;;;;;;;8.83;2.40;;;;;;;;;;518677;28;1134;-76
2024/01/27 00:38:42;;;;;;;8.98;2.33;;;;;;;;;;518555;28;1199;-76
2024/01/27 00:38:58;;;;;;;7.03;2.20;;;;;;;;;;514994;28;1303;-76
2024/01/27 00:39:13;;;;;;;5.97;2.20;;;;;;;;;;516406;28;1199;-76
2024/01/27 00:39:28;;;;;;;7.25;2.40;;;;;;;;;;516769;28;1182;-76
2024/01/27 00:39:45;;;;;;;9.23;2.43;;;;;;;;;;516839;28;1072;-76
2024/01/27 00:40:00;;;;;;;10.20;2.50;;;;;;;;;;512000;28;1898;-76
2024/01/27 00:40:15;;;;;;;9.30;2.58;;;;;;;;;;511991;28;1103;-75
2024/01/27 00:40:31;;;;;;;7.50;2.23;;;;;;;;;;512042;28;1108;-76
2024/01/27 00:40:46;;;;;;;8.00;2.30;;;;;;;;;;513322;28;1173;-76
2024/01/27 00:41:02;;;;;;;7.23;2.40;;;;;;;;;;512594;28;1367;-76
2024/01/27 00:41:18;;;;;;;6.53;2.50;;;;;;;;;;509378;29;1149;-76
2024/01/27 00:41:33;;;;;;;7.50;2.60;;;;;;;;;;510556;28;1321;-76
2024/01/27 00:41:49;;;;;;;8.73;2.77;;;;;;;;;;511064;28;1125;-76
2024/01/27 00:42:04;;;;;;;7.73;2.60;;;;;;;;;;514616;28;1148;-76
2024/01/27 00:42:23;;;;;;;8.48;2.80;;;;;;;;;;514546;28;1237;-76
2024/01/27 00:42:40;;;;;;;10.40;3.20;;;;;;;;;;513025;28;1111;-76
2024/01/27 00:42:55;;;;;;;10.85;2.92;;;;;;;;;;512946;28;1332;-75
2024/01/27 00:43:11;;;;;;;9.52;2.75;;;;;;;;;;512789;28;1069;-76
2024/01/27 00:43:26;;;;;;;9.27;2.73;;;;;;;;;;512186;28;2312;-76
2024/01/27 00:43:42;;;;;;;9.70;2.80;;;;;;;;;;512715;28;1983;-75
2024/01/27 00:43:57;;;;;;;8.43;2.70;;;;;;;;;;510565;28;1896;-76
2024/01/27 00:44:12;;;;;;;9.05;2.75;;;;;;;;;;510797;28;1215;-76
2024/01/27 00:44:27;;;;;;;8.77;2.70;;;;;;;;;;510910;28;1282;-75
2024/01/27 00:44:43;;;;;;;8.97;2.57;;;;;;;;;;512864;28;1202;-76
2024/01/27 00:44:58;;;;;;;10.13;2.72;;;;;;;;;;512772;28;981;-75
2024/01/27 00:45:14;;;;;;;9.47;2.60;;;;;;;;;;512804;28;1712;-75
2024/01/27 00:45:30;;;;;;;8.20;2.50;;;;;;;;;;512537;28;1048;-76
2024/01/27 00:45:45;;;;;;;7.78;2.60;;;;;;;;;;510999;28;1163;-76
2024/01/27 00:46:00;;;;;;;8.03;2.63;;;;;;;;;;510125;29;1920;-76
2024/01/27 00:46:15;;;;;;;9.93;2.80;;;;;;;;;;510235;28;1042;-75
2024/01/27 00:46:31;;;;;;;11.87;2.80;;;;;;;;;;510448;28;1326;-75
2024/01/27 00:46:46;;;;;;;10.20;2.53;;;;;;;;;;510172;28;1162;-76
2024/01/27 00:47:02;;;;;;;7.63;2.60;;;;;;;;;;510903;29;1215;-76
2024/01/27 00:47:18;;;;;;;6.50;2.40;;;;;;;;;;509470;29;1324;-75
2024/01/27 00:47:33;;;;;;;8.60;2.30;;;;;;;;;;512531;28;1230;-75
2024/01/27 00:47:51;;;;;;;9.23;2.63;;;;;;;;;;511149;28;1113;-76
2024/01/27 00:48:07;;;;;;;9.32;2.75;;;;;;;;;;512919;28;1042;-75
2024/01/27 00:48:22;;;;;;;9.68;2.58;;;;;;;;;;510623;28;1258;-76
2024/01/27 00:48:37;;;;;;;7.77;2.40;;;;;;;;;;511066;28;1568;-76
2024/01/27 00:48:53;;;;;;;7.15;2.40;;;;;;;;;;513132;28;1539;-76
2024/01/27 00:49:08;;;;;;;8.23;2.50;;;;;;;;;;514024;28;2226;-76
2024/01/27 00:49:24;;;;;;;7.63;2.40;;;;;;;;;;515877;28;1728;-76
2024/01/27 00:49:40;;;;;;;8.68;2.60;;;;;;;;;;516622;28;1870;-76
2024/01/27 00:49:55;;;;;;;10.33;2.80;;;;;;;;;;516887;28;1318;-76
2024/01/27 00:50:11;;;;;;;8.70;2.50;;;;;;;;;;517367;28;1143;-76
2024/01/27 00:50:26;;;;;;;7.88;2.35;;;;;;;;;;517582;28;1676;-76
2024/01/27 00:50:41;;;;;;;9.70;2.60;;;;;;;;;;516803;28;1268;-76
2024/01/27 00:50:56;;;;;;;9.27;2.70;;;;;;;;;;518865;28;1106;-76
2024/01/27 00:51:13;;;;;;;8.93;2.70;;;;;;;;;;518983;28;1121;-76
2024/01/27 00:51:28;;;;;;;9.13;2.75;;;;;;;;;;518030;28;1357;-76
2024/01/27 00:51:43;;;;;;;9.17;2.60;;;;;;;;;;518092;28;1679;-76
2024/01/27 00:51:59;;;;;;;9.00;2.60;;;;;;;;;;514239;28;1217;-75
2024/01/27 00:52:14;;;;;;;8.00;2.80;;;;;;;;;;513480;28;807;-76
2024/01/27 00:52:29;;;;;;;8.53;2.70;;;;;;;;;;512555;28;1169;-76
2024/01/27 00:52:45;;;;;;;9.57;2.70;;;;;;;;;;512722;28;1236;-75
2024/01/27 00:53:00;;;;;;;9.10;2.57;;;;;;;;;;512934;28;1193;-75
2024/01/27 00:53:15;;;;;;;8.40;2.40;;;;;;;;;;514807;28;1308;-76
2024/01/27 00:53:31;;;;;;;8.15;2.30;;;;;;;;;;514883;28;1212;-76
2024/01/27 00:53:46;;;;;;;8.53;2.40;;;;;;;;;;516500;28;1038;-75
2024/01/27 00:54:02;;;;;;;7.28;2.38;;;;;;;;;;517109;28;808;-76
2024/01/27 00:54:17;;;;;;;7.50;2.40;;;;;;;;;;516176;28;1796;-76
2024/01/27 00:54:32;;;;;;;8.47;2.27;;;;;;;;;;512493;28;1261;-76
2024/01/27 00:54:48;;;;;;;8.23;2.40;;;;;;;;;;512276;28;1574;-76
2024/01/27 00:55:03;;;;;;;8.67;2.70;;;;;;;;;;512756;28;979;-76
2024/01/27 00:55:19;;;;;;;9.95;2.58;;;;;;;;;;512389;28;1834;-76
2024/01/27 00:55:34;;;;;;;8.80;2.47;;;;;;;;;;514578;28;1242;-76
2024/01/27 00:55:50;;;;;;;9.88;2.65;;;;;;;;;;510469;28;1796;-75
2024/01/27 00:56:05;;;;;;;10.27;2.70;;;;;;;;;;509158;29;1322;-76
2024/01/27 00:56:21;;;;;;;11.63;2.57;;;;;;;;;;510210;28;1575;-76
2024/01/27 00:56:36;;;;;;;11.75;2.60;;;;;;;;;;512939;28;1372;-76
2024/01/27 00:56:52;;;;;;;7.37;2.40;;;;;;;;;;512410;28;1327;-76
2024/01/27 00:57:07;;;;;;;9.23;2.55;;;;;;;;;;513799;28;1303;-75
2024/01/27 00:57:23;;;;;;;9.80;2.57;;;;;;;;;;514713;28;938;-76
2024/01/27 00:57:38;;;;;;;7.90;2.50;;;;;;;;;;513602;28;1002;-76
2024/01/27 00:57:54;;;;;;;8.07;2.45;;;;;;;;;;512703;28;1171;-75
2024/01/27 00:58:09;;;;;;;7.80;2.37;;;;;;;;;;513323;28;1443;-76
2024/01/27 00:58:24;;;;;;;8.15;2.33;;;;;;;;;;513079;28;1091;-75
2024/01/27 00:58:40;;;;;;;7.60;2.30;;;;;;;;;;513108;28;1377;-76
2024/01/27 00:58:55;;;;;;;8.15;2.50;;;;;;;;;;512962;28;1261;-76
2024/01/27 00:59:10;;;;;;;9.13;2.63;;;;;;;;;;515255;28;1228;-75
2024/01/27 00:59:25;;;;;;;10.10;2.70;;;;;;;;;;514200;28;1881;-76
2024/01/27 00:59:41;;;;;;;9.73;2.80;;;;;;;;;;514931;28;1337;-76
2024/01/27 00:59:56;;;;;;;8.93;2.63;;;;;;;;;;512779;28;1304;-76
2024/01/27 01:00:12;;;;;;;8.37;2.50;;;;;;;;;;513142;28;1244;-76
2024/01/27 01:00:27;;;;;;;7.57;2.40;;;;;;;;;;513068;28;1360;-76
2024/01/27 01:00:43;;;;;;;7.87;2.23;;;;;;;;;;509108;28;1162;-76
2024/01/27 01:01:01;;;;;;;8.63;2.40;;;;;;;;;;511114;29;1239;-76
2024/01/27 01:01:16;;;;;;;9.40;2.60;;;;;;;;;;511580;29;788;-76
2024/01/27 01:01:31;;;;;;;8.33;2.47;;;;;;;;;;511141;28;1271;-76
2024/01/27 01:01:47;;;;;;;8.03;2.47;;;;;;;;;;511449;28;1366;-76
2024/01/27 01:02:02;;;;;;;8.32;2.58;;;;;;;;;;511905;28;1255;-76
2024/01/27 01:02:17;;;;;;;8.27;2.60;;;;;;;;;;515264;28;1218;-76
2024/01/27 01:02:33;;;;;;;8.87;2.57;;;;;;;;;;515677;28;1075;-76
2024/01/27 01:02:48;;;;;;;8.00;2.50;;;;;;;;;;514410;28;1307;-75
2024/01/27 01:03:03;;;;;;;7.53;2.50;;;;;;;;;;511143;29;1184;-76
2024/01/27 01:03:19;;;;;;;9.97;2.60;;;;;;;;;;510592;29;1898;-76
2024/01/27 01:03:34;;;;;;;8.83;2.57;;;;;;;;;;511339;28;1018;-76
2024/01/27 01:03:49;;;;;;;8.60;2.67;;;;;;;;;;510884;28;1120;-75
2024/01/27 01:04:04;;;;;;;8.13;2.43;;;;;;;;;;511199;28;1281;-76
2024/01/27 01:04:20;;;;;;;7.20;2.30;;;;;;;;;;515136;28;1246;-76
2024/01/27 01:04:35;;;;;;;9.23;2.53;;;;;;;;;;513031;28;1160;-76
2024/01/27 01:04:50;;;;;;;7.90;2.40;;;;;;;;;;512942;28;1272;-76
2024/01/27 01:05:06;;;;;;;5.72;2.00;;;;;;;;;;510997;29;1120;-76
2024/01/27 01:05:21;;;;;;;7.43;2.20;;;;;;;;;;510569;29;1852;-76
2024/01/27 01:05:37;;;;;;;8.05;2.50;;;;;;;;;;511011;28;1236;-76
2024/01/27 01:05:52;;;;;;;8.00;2.60;;;;;;;;;;513019;28;1149;-76
2024/01/27 01:06:07;;;;;;;9.77;2.73;;;;;;;;;;513195;28;1927;-76
2024/01/27 01:06:23;;;;;;;10.47;2.70;;;;;;;;;;512992;28;1360;-76
2024/01/27 01:06:41;;;;;;;9.87;2.60;;;;;;;;;;512887;28;1158;-76
2024/01/27 01:06:56;;;;;;;8.07;2.67;;;;;;;;;;514535;28;1253;-76
2024/01/27 01:07:12;;;;;;;8.00;2.53;;;;;;;;;;513071;28;995;-76
2024/01/27 01:07:27;;;;;;;7.70;2.43;;;;;;;;;;514762;28;1433;-75
2024/01/27 01:07:42;;;;;;;9.33;2.77;;;;;;;;;;514776;28;1654;-75
2024/01/27 01:07:57;;;;;;;10.17;2.80;;;;;;;;;;515267;28;1140;-76
2024/01/27 01:08:13;;;;;;;8.85;2.40;;;;;;;;;;515315;28;1589;-76
2024/01/27 01:08:28;;;;;;;10.00;2.47;;;;;;;;;;514451;28;1313;-76
2024/01/27 01:08:43;;;;;;;8.70;2.57;;;;;;;;;;513515;28;1104;-76
2024/01/27 01:08:59;;;;;;;7.88;2.65;;;;;;;;;;515479;28;886;-76
2024/01/27 01:09:14;;;;;;;8.50;2.87;;;;;;;;;;516436;28;1866;-76
2024/01/27 01:09:29;;;;;;;7.67;2.60;;;;;;;;;;515273;28;1456;-76
2024/01/27 01:09:45;;;;;;;6.72;2.40;;;;;;;;;;515197;28;1592;-76
2024/01/27 01:10:01;;;;;;;6.15;2.50;;;;;;;;;;513345;28;1277;-76
2024/01/27 01:10:16;;;;;;;7.17;2.60;;;;;;;;;;513728;28;978;-75
2024/01/27 01:10:33;;;;;;;8.65;2.70;;;;;;;;;;514847;28;1332;-76
2024/01/27 01:10:48;;;;;;;8.13;2.55;;;;;;;;;;512678;28;1355;-76
2024/01/27 01:11:04;;;;;;;7.78;2.50;;;;;;;;;;513358;28;1296;-76
2024/01/27 01:11:19;;;;;;;7.70;2.53;;;;;;;;;;511164;28;1439;-77
2024/01/27 01:11:34;;;;;;;8.50;2.65;;;;;;;;;;509493;29;1084;-76
2024/01/27 01:11:50;;;;;;;10.00;2.97;;;;;;;;;;508745;29;1412;-76
2024/01/27 01:12:05;;;;;;;9.43;2.73;;;;;;;;;;509043;29;1378;-76
2024/01/27 01:12:20;;;;;;;7.68;2.55;;;;;;;;;;509509;29;840;-76
2024/01/27 01:12:36;;;;;;;9.37;2.80;;;;;;;;;;509403;29;1484;-75
2024/01/27 01:12:51;;;;;;;10.10;2.87;;;;;;;;;;509136;29;1370;-76
2024/01/27 01:13:06;;;;;;;7.97;2.80;;;;;;;;;;509280;29;1331;-76
2024/01/27 01:13:22;;;;;;;8.70;2.80;;;;;;;;;;509090;28;1213;-76
2024/01/27 01:13:37;;;;;;;7.88;2.75;;;;;;;;;;511574;28;1628;-76
2024/01/27 01:13:52;;;;;;;8.83;2.87;;;;;;;;;;513026;28;1396;-75
2024/01/27 01:14:08;;;;;;;10.17;2.97;;;;;;;;;;511395;29;1313;-76
2024/01/27 01:14:23;;;;;;;9.63;3.03;;;;;;;;;;513163;28;1291;-75
2024/01/27 01:14:39;;;;;;;8.75;2.97;;;;;;;;;;513380;28;1375;-76
2024/01/27 01:14:54;;;;;;;9.38;2.88;;;;;;;;;;513287;28;863;-76
2024/01/27 01:15:10;;;;;;;8.37;2.63;;;;;;;;;;513193;28;1141;-76
2024/01/27 01:15:26;;;;;;;7.32;2.60;;;;;;;;;;512776;28;1206;-76
2024/01/27 01:15:42;;;;;;;7.38;2.53;;;;;;;;;;512799;28;1768;-75
2024/01/27 01:15:57;;;;;;;7.60;2.60;;;;;;;;;;513287;28;804;-76
2024/01/27 01:16:13;;;;;;;8.30;2.70;;;;;;;;;;511978;28;1246;-76
2024/01/27 01:16:28;;;;;;;7.88;2.60;;;;;;;;;;514509;28;1208;-76
2024/01/27 01:16:44;;;;;;;9.33;2.73;;;;;;;;;;514283;28;1188;-75
2024/01/27 01:16:59;;;;;;;12.60;2.90;;;;;;;;;;514989;28;1010;-75
2024/01/27 01:17:14;;;;;;;11.50;2.70;;;;;;;;;;513258;28;1438;-75
2024/01/27 01:17:29;;;;;;;7.90;2.60;;;;;;;;;;512642;28;1705;-76
2024/01/27 01:17:45;;;;;;;7.20;2.57;;;;;;;;;;510948;28;1484;-76
2024/01/27 01:18:00;;;;;;;7.20;2.63;;;;;;;;;;512186;28;1816;-75
2024/01/27 01:18:15;;;;;;;9.17;3.10;;;;;;;;;;511235;29;1371;-76
2024/01/27 01:18:31;;;;;;;9.93;3.07;;;;;;;;;;512499;28;1017;-75
2024/01/27 01:18:46;;;;;;;8.93;2.60;;;;;;;;;;515338;28;1149;-75
2024/01/27 01:19:01;;;;;;;8.67;2.53;;;;;;;;;;515442;28;1224;-76
2024/01/27 01:19:16;;;;;;;6.80;2.40;;;;;;;;;;517340;28;816;-75
2024/01/27 01:19:32;;;;;;;7.78;2.30;;;;;;;;;;515127;28;1111;-76
2024/01/27 01:19:48;;;;;;;8.27;2.30;;;;;;;;;;515034;28;1334;-76
2024/01/27 01:20:04;;;;;;;7.40;2.25;;;;;;;;;;517263;28;1300;-76
2024/01/27 01:20:19;;;;;;;7.22;2.28;;;;;;;;;;516298;28;2057;-75
2024/01/27 01:20:35;;;;;;;6.93;2.30;;;;;;;;;;517081;28;1501;-75
2024/01/27 01:20:50;;;;;;;6.80;2.47;;;;;;;;;;515726;28;1573;-76
2024/01/27 01:21:06;;;;;;;9.18;2.60;;;;;;;;;;515498;28;820;-76
2024/01/27 01:21:21;;;;;;;9.33;2.60;;;;;;;;;;513072;28;1340;-76
2024/01/27 01:21:37;;;;;;;7.47;2.35;;;;;;;;;;511675;28;1270;-76
2024/01/27 01:21:52;;;;;;;8.83;2.50;;;;;;;;;;512254;28;1258;-76
2024/01/27 01:22:07;;;;;;;9.93;2.77;;;;;;;;;;513450;28;1267;-76
2024/01/27 01:22:22;;;;;;;8.80;2.67;;;;;;;;;;515318;28;1041;-76
2024/01/27 01:22:38;;;;;;;8.07;2.60;;;;;;;;;;515652;28;891;-76
2024/01/27 01:22:54;;;;;;;8.75;2.65;;;;;;;;;;515217;28;1293;-75
2024/01/27 01:23:09;;;;;;;10.07;2.67;;;;;;;;;;515711;28;788;-76
2024/01/27 01:23:25;;;;;;;10.80;2.80;;;;;;;;;;517305;28;1009;-75
2024/01/27 01:23:40;;;;;;;9.33;2.53;;;;;;;;;;516860;28;1387;-76
2024/01/27 01:23:56;;;;;;;7.95;2.40;;;;;;;;;;515240;28;1561;-76
2024/01/27 01:24:11;;;;;;;8.47;2.53;;;;;;;;;;515005;28;1390;-75
2024/01/27 01:24:26;;;;;;;8.48;2.58;;;;;;;;;;515307;28;1017;-75
2024/01/27 01:24:42;;;;;;;9.40;2.60;;;;;;;;;;515404;28;1018;-76
2024/01/27 01:24:58;;;;;;;9.83;2.63;;;;;;;;;;515213;28;1135;-75
2024/01/27 01:25:13;;;;;;;8.60;2.70;;;;;;;;;;514827;28;1817;-75
2024/01/27 01:25:28;;;;;;;8.88;2.75;;;;;;;;;;513972;28;1094;-75
2024/01/27 01:25:44;;;;;;;8.83;2.73;;;;;;;;;;515546;28;926;-75
2024/01/27 01:25:59;;;;;;;8.57;2.50;;;;;;;;;;517061;28;1930;-76
2024/01/27 01:26:14;;;;;;;9.40;2.40;;;;;;;;;;517148;28;815;-76
2024/01/27 01:26:31;;;;;;;10.07;2.60;;;;;;;;;;517346;28;1040;-75
2024/01/27 01:26:46;;;;;;;10.05;2.70;;;;;;;;;;516988;28;1025;-75
2024/01/27 01:27:03;;;;;;;8.27;2.53;;;;;;;;;;517632;28;902;-76
2024/01/27 01:27:18;;;;;;;7.13;2.47;;;;;;;;;;517321;28;1359;-75
2024/01/27 01:27:34;;;;;;;7.05;2.50;;;;;;;;;;517220;28;1554;-76
2024/01/27 01:27:50;;;;;;;9.02;2.55;;;;;;;;;;516922;28;1063;-75
2024/01/27 01:28:05;;;;;;;10.00;2.70;;;;;;;;;;515327;28;1276;-76
2024/01/27 01:28:20;;;;;;;8.75;2.67;;;;;;;;;;515270;28;1195;-75
2024/01/27 01:28:37;;;;;;;8.13;2.60;;;;;;;;;;515324;28;1053;-76
2024/01/27 01:28:52;;;;;;;8.03;2.70;;;;;;;;;;514298;28;1778;-76
2024/01/27 01:29:07;;;;;;;8.18;2.63;;;;;;;;;;513614;28;827;-75
2024/01/27 01:29:23;;;;;;;8.70;2.60;;;;;;;;;;514042;28;1223;-75
2024/01/27 01:29:38;;;;;;;9.63;2.80;;;;;;;;;;515364;28;1250;-76
2024/01/27 01:29:53;;;;;;;9.10;2.72;;;;;;;;;;515297;28;1319;-76
2024/01/27 01:30:09;;;;;;;8.23;2.57;;;;;;;;;;514797;28;1188;-76
2024/01/27 01:30:24;;;;;;;8.90;2.70;;;;;;;;;;514440;28;1275;-76
2024/01/27 01:30:40;;;;;;;8.53;2.50;;;;;;;;;;515190;28;1034;-75
2024/01/27 01:30:55;;;;;;;7.25;2.20;;;;;;;;;;514871;28;1201;-76
2024/01/27 01:31:11;;;;;;;7.53;2.63;;;;;;;;;;512907;28;1231;-76
2024/01/27 01:31:26;;;;;;;8.23;2.65;;;;;;;;;;511250;28;1071;-75
2024/01/27 01:31:42;;;;;;;8.23;2.57;;;;;;;;;;512825;28;1120;-75
2024/01/27 01:31:58;;;;;;;10.45;2.92;;;;;;;;;;513240;28;1200;-76
2024/01/27 01:32:13;;;;;;;10.23;2.78;;;;;;;;;;515656;28;1194;-76
2024/01/27 01:32:28;;;;;;;7.93;2.50;;;;;;;;;;516921;28;1020;-75
2024/01/27 01:32:44;;;;;;;8.70;2.70;;;;;;;;;;517206;28;1036;-76
2024/01/27 01:32:59;;;;;;;10.38;2.80;;;;;;;;;;517219;28;1324;-75
2024/01/27 01:33:14;;;;;;;9.73;2.70;;;;;;;;;;517094;28;1288;-75
2024/01/27 01:33:31;;;;;;;8.03;2.60;;;;;;;;;;515161;28;1360;-75
2024/01/27 01:33:46;;;;;;;8.30;2.60;;;;;;;;;;515110;28;898;-76
2024/01/27 01:34:01;;;;;;;8.13;2.60;;;;;;;;;;513472;28;1295;-75
2024/01/27 01:34:16;;;;;;;8.57;2.70;;;;;;;;;;513160;28;1191;-75
2024/01/27 01:34:34;;;;;;;9.18;2.67;;;;;;;;;;510950;28;1403;-75
2024/01/27 01:34:49;;;;;;;8.07;2.70;;;;;;;;;;511240;28;1337;-75
2024/01/27 01:35:05;;;;;;;7.53;2.67;;;;;;;;;;511239;29;1418;-76
2024/01/27 01:35:20;;;;;;;7.72;2.50;;;;;;;;;;511435;28;1314;-75
2024/01/27 01:35:37;;;;;;;8.00;2.67;;;;;;;;;;511100;28;1241;-75
2024/01/27 01:35:53;;;;;;;8.60;2.60;;;;;;;;;;511129;28;855;-75